Time;durP1;ratioP1;P1;durP2;ratioP2;P2;SDS_P1;SDS_P2;PMS_P1;PMS_P2;Temp;Humidity;BMP_temperature;BMP_pressure;BME280_temperature;BME280_humidity;BME280_pressure;Samples;Min_cycle;Max_cycle;Signal;HPM_P1;HPM_P2
2022/11/11 00:01:06;;;;;;;8.52;6.68;;;;;;;8.28;78.01;100602.19;5126113;28;20047;-71
2022/11/11 00:03:33;;;;;;;8.65;6.78;;;;;;;8.77;77.95;100681.94;5109762;28;20123;-71
2022/11/11 00:06:11;;;;;;;10.38;8.50;;;;;;;7.85;78.13;100551.38;5109640;28;20198;-73
2022/11/11 00:08:37;;;;;;;9.30;7.88;;;;;;;8.76;78.06;100670.50;5110031;28;20054;-71
2022/11/11 00:11:08;;;;;;;13.45;8.15;;;;;;;8.77;78.08;100671.38;5127003;28;20070;-70
2022/11/11 00:13:37;;;;;;;11.75;7.43;;;;;;;8.15;78.06;100571.72;5126906;28;20043;-70
2022/11/11 00:16:06;;;;;;;9.63;7.80;;;;;;;8.75;78.19;100674.06;5126624;28;20048;-71
2022/11/11 00:26:46;;;;;;;8.43;7.53;;;;;;;8.71;78.20;100660.97;5109058;28;20047;-70
2022/11/11 00:29:13;;;;;;;9.85;7.47;;;;;;;8.72;78.33;100665.34;5126450;28;20035;-70
2022/11/11 00:32:21;;;;;;;13.98;9.10;;;;;;;6.91;77.95;100347.09;5109286;28;20035;-71
2022/11/11 00:34:27;;;;;;;9.73;7.53;;;;;;;8.70;78.38;100644.22;5108421;28;20110;-70
2022/11/11 00:36:53;;;;;;;8.88;6.90;;;;;;;8.68;78.23;100646.91;5108279;28;20311;-70
2022/11/11 00:39:19;;;;;;;8.45;7.05;;;;;;;8.69;78.40;100655.72;5126162;28;20103;-70
2022/11/11 00:41:48;;;;;;;10.77;7.78;;;;;;;8.51;78.08;100621.84;5126119;28;20043;-70
2022/11/11 00:44:14;;;;;;;8.85;7.20;;;;;;;8.69;78.26;100647.78;5126202;28;20066;-70
2022/11/11 00:52:09;;;;;;;10.57;7.95;;;;;;;8.63;78.57;100656.75;5106007;28;20051;-70
2022/11/11 00:54:36;;;;;;;9.40;7.97;;;;;;;8.46;78.35;100621.97;5106025;28;20036;-70
2022/11/11 00:57:04;;;;;;;10.70;7.13;;;;;;;8.46;78.36;100619.31;5105981;28;20093;-70
2022/11/11 00:59:31;;;;;;;11.65;7.45;;;;;;;8.63;78.32;100655.88;5106260;28;20051;-71
2022/11/11 01:01:58;;;;;;;10.90;7.57;;;;;;;8.60;78.37;100655.97;5105266;28;20241;-70
2022/11/11 01:04:25;;;;;;;8.40;6.32;;;;;;;7.90;78.39;100531.03;5105835;28;20102;-71
2022/11/11 01:06:52;;;;;;;8.98;6.95;;;;;;;8.57;78.34;100635.75;5105605;28;20107;-69
2022/11/11 01:09:19;;;;;;;8.05;7.13;;;;;;;8.58;78.31;100637.50;5105728;28;20046;-70
2022/11/11 01:11:46;;;;;;;10.18;6.93;;;;;;;8.58;78.42;100636.63;5105397;28;20288;-70
2022/11/11 01:14:14;;;;;;;10.75;7.80;;;;;;;8.56;78.39;100638.44;5110132;28;20048;-70
2022/11/11 01:16:40;;;;;;;11.60;8.05;;;;;;;8.53;78.30;100641.16;5109556;28;20365;-70
2022/11/11 01:19:07;;;;;;;9.63;7.10;;;;;;;8.47;78.50;100642.19;5110143;28;20044;-70
2022/11/11 01:21:34;;;;;;;10.45;6.90;;;;;;;8.21;78.67;100603.25;5109758;28;20036;-70
2022/11/11 01:24:01;;;;;;;9.50;7.35;;;;;;;8.48;78.72;100651.88;5109690;28;20050;-71
2022/11/11 01:26:28;;;;;;;9.50;7.10;;;;;;;8.47;78.55;100660.69;5109401;28;20055;-70
2022/11/11 01:28:56;;;;;;;9.57;7.43;;;;;;;8.45;78.71;100653.72;5109361;28;20292;-70
2022/11/11 01:31:26;;;;;;;8.25;6.53;;;;;;;7.66;78.69;100516.66;5108449;28;20230;-70
2022/11/11 01:33:53;;;;;;;8.45;7.18;;;;;;;8.43;78.61;100658.16;5109268;28;20055;-69
2022/11/11 01:36:22;;;;;;;7.93;6.50;;;;;;;8.39;78.69;100653.88;5109766;28;20051;-70
2022/11/11 01:38:51;;;;;;;9.18;7.13;;;;;;;8.40;78.72;100664.41;5109119;28;20189;-69
2022/11/11 01:41:32;;;;;;;11.70;8.05;;;;;;;8.39;78.68;100656.50;5109379;28;20248;-69
2022/11/11 01:44:00;;;;;;;9.77;6.57;;;;;;;7.95;78.89;100592.47;5109088;28;20051;-69
2022/11/11 01:46:33;;;;;;;11.75;7.60;;;;;;;8.20;78.63;100632.34;5109011;28;20207;-70
2022/11/11 01:49:19;;;;;;;10.35;7.78;;;;;;;8.35;78.62;100655.72;5108216;28;20060;-70
2022/11/11 01:51:51;;;;;;;9.93;7.18;;;;;;;8.35;78.77;100661.00;5108022;28;20081;-70
2022/11/11 01:54:22;;;;;;;10.68;6.80;;;;;;;8.36;78.53;100662.75;5109220;28;20036;-69
2022/11/11 01:56:54;;;;;;;8.93;6.85;;;;;;;7.20;78.47;100466.78;5109099;28;20048;-70
2022/11/11 01:59:21;;;;;;;11.98;7.85;;;;;;;8.31;78.51;100660.22;5108006;28;20040;-70
2022/11/11 02:01:50;;;;;;;8.90;7.25;;;;;;;8.14;78.65;100627.22;5108476;28;20081;-70
2022/11/11 02:07:08;;;;;;;12.65;9.00;;;;;;;8.30;78.58;100676.09;5108677;28;20111;-71
2022/11/11 02:09:36;;;;;;;15.25;7.65;;;;;;;8.27;78.56;100674.41;5108977;28;20090;-70
2022/11/11 02:14:55;;;;;;;10.25;8.23;;;;;;;7.38;78.39;100540.22;5107607;28;20044;-70
2022/11/11 02:17:25;;;;;;;9.48;8.23;;;;;;;8.20;78.48;100682.53;5108207;28;20082;-71
2022/11/11 02:19:55;;;;;;;10.60;8.05;;;;;;;8.17;78.59;100679.97;5108119;28;20100;-70
2022/11/11 02:22:31;;;;;;;11.35;9.13;;;;;;;8.16;78.57;100683.50;5107819;28;20215;-69
2022/11/11 02:25:02;;;;;;;10.40;9.30;;;;;;;8.03;78.58;100672.38;5106554;28;20230;-70
2022/11/11 02:27:31;;;;;;;11.27;9.50;;;;;;;8.08;78.43;100677.53;5108489;28;20204;-69
2022/11/11 02:30:01;;;;;;;11.82;10.63;;;;;;;8.07;78.68;100671.38;5108079;28;20054;-70
2022/11/11 02:32:28;;;;;;;11.43;10.07;;;;;;;7.64;78.42;100603.78;5107284;28;20051;-70
2022/11/11 02:34:54;;;;;;;10.48;9.38;;;;;;;8.04;78.50;100676.75;5107788;28;20227;-70
2022/11/11 02:37:23;;;;;;;10.05;8.95;;;;;;;8.01;78.68;100671.53;5108165;28;20044;-70
2022/11/11 02:39:53;;;;;;;12.75;9.60;;;;;;;7.93;78.53;100660.28;5108059;28;20036;-70
2022/11/11 02:42:23;;;;;;;10.85;8.88;;;;;;;5.72;78.10;100285.69;5107154;28;20048;-70
2022/11/11 02:44:57;;;;;;;11.00;9.10;;;;;;;7.95;78.39;100666.41;5108204;28;20086;-70
2022/11/11 02:47:24;;;;;;;10.50;8.55;;;;;;;7.94;78.41;100668.16;5107577;28;20044;-70
2022/11/11 02:49:51;;;;;;;10.23;8.65;;;;;;;7.92;78.20;100667.34;5119040;28;20056;-71
2022/11/11 02:52:18;;;;;;;9.50;7.63;;;;;;;7.91;78.31;100667.38;5128107;28;20043;-71
2022/11/11 02:54:45;;;;;;;11.95;10.35;;;;;;;7.90;78.31;100671.78;5111140;28;20043;-71
2022/11/11 02:57:12;;;;;;;10.40;7.30;;;;;;;7.89;78.26;100670.06;5128694;28;20283;-71
2022/11/11 02:59:41;;;;;;;10.52;7.60;;;;;;;7.68;78.20;100638.88;5110171;28;20080;-71
2022/11/11 03:02:08;;;;;;;9.02;8.05;;;;;;;7.86;78.21;100677.16;5110284;28;20044;-71
2022/11/11 03:04:36;;;;;;;9.90;8.15;;;;;;;7.82;78.26;100670.22;5128232;28;20188;-70
2022/11/11 03:07:03;;;;;;;8.45;7.65;;;;;;;7.85;78.26;100681.59;5110043;28;20039;-70
2022/11/11 03:09:29;;;;;;;10.93;7.97;;;;;;;7.64;78.22;100661.81;5110817;28;20077;-71
2022/11/11 03:11:56;;;;;;;9.52;8.20;;;;;;;7.84;78.27;100689.53;5128046;28;20195;-71
2022/11/11 03:14:23;;;;;;;10.68;7.65;;;;;;;7.34;78.25;100625.56;5128034;28;20046;-71
2022/11/11 03:19:35;;;;;;;9.57;7.35;;;;;;;7.76;78.60;100710.81;5127656;28;20043;-70
2022/11/11 03:22:03;;;;;;;10.05;7.63;;;;;;;7.74;78.56;100717.03;5127656;28;20215;-71
2022/11/11 03:27:11;;;;;;;8.23;7.30;;;;;;;7.71;78.48;100725.88;5111137;28;20055;-71
2022/11/11 03:29:38;;;;;;;11.25;7.93;;;;;;;7.72;78.57;100729.41;5127747;28;20051;-71
2022/11/11 03:32:06;;;;;;;11.93;8.82;;;;;;;7.71;78.70;100723.25;5127352;28;20039;-71
2022/11/11 03:34:33;;;;;;;10.93;8.50;;;;;;;7.72;78.59;100730.25;5109559;28;20050;-70
2022/11/11 03:39:44;;;;;;;10.20;9.10;;;;;;;7.51;78.54;100702.56;5127516;28;20188;-71
2022/11/11 03:42:11;;;;;;;12.43;7.97;;;;;;;6.99;78.81;100603.44;5127545;28;20048;-71
2022/11/11 03:44:37;;;;;;;10.65;8.13;;;;;;;7.74;78.79;100736.38;5109891;28;20035;-69
2022/11/11 03:47:05;;;;;;;12.38;8.95;;;;;;;7.74;79.13;100740.78;5109281;28;20336;-70
2022/11/11 03:49:32;;;;;;;12.60;9.07;;;;;;;7.75;79.07;100740.75;5127264;28;20051;-71
2022/11/11 03:51:59;;;;;;;10.63;8.35;;;;;;;7.46;78.94;100696.53;5127246;28;20044;-71
2022/11/11 03:54:25;;;;;;;10.77;7.78;;;;;;;7.77;79.26;100744.22;5127015;28;20166;-71
2022/11/11 03:57:29;;;;;;;10.68;7.82;;;;;;;7.56;79.14;100716.53;5127216;28;20047;-71
2022/11/11 03:59:39;;;;;;;9.45;7.97;;;;;;;7.40;79.31;100686.09;5108858;28;20049;-70
2022/11/11 04:10:38;;;;;;;8.80;6.97;;;;;;;7.55;79.54;100698.09;5083703;28;20044;-70
2022/11/11 04:16:05;;;;;;;10.40;7.25;;;;;;;7.79;79.76;100723.94;5108771;28;20074;-71
2022/11/11 04:25:47;;;;;;;9.50;7.35;;;;;;;7.31;79.60;100667.81;5126764;28;20082;-70
2022/11/11 04:26:49;;;;;;;11.30;8.80;;;;;;;7.76;79.77;100725.78;5108557;28;20085;-70
2022/11/11 04:29:28;;;;;;;8.95;7.53;;;;;;;7.61;79.92;100705.88;5126365;28;20036;-70
2022/11/11 04:34:46;;;;;;;12.10;7.80;;;;;;;7.75;79.59;100730.19;5108467;28;20307;-70
2022/11/11 04:37:14;;;;;;;10.10;8.82;;;;;;;7.79;79.86;100747.72;5126832;28;20065;-70
2022/11/11 04:42:25;;;;;;;11.75;8.70;;;;;;;7.80;80.00;100740.66;5108367;28;20043;-70
2022/11/11 04:47:37;;;;;;;10.68;8.25;;;;;;;7.81;80.08;100740.63;5125659;28;20043;-70
2022/11/11 04:50:07;;;;;;;12.60;7.80;;;;;;;5.30;79.81;100309.31;5126101;28;20063;-70
2022/11/11 04:52:33;;;;;;;9.40;8.40;;;;;;;7.81;79.87;100735.34;5126326;28;20043;-70
2022/11/11 04:57:46;;;;;;;14.10;8.00;;;;;;;7.79;79.79;100733.63;5126111;28;20043;-70
2022/11/11 05:00:16;;;;;;;11.10;8.15;;;;;;;7.77;79.75;100730.16;5126096;28;20191;-70
2022/11/11 05:08:54;;;;;;;13.10;8.60;;;;;;;7.69;79.85;100722.41;5126001;28;20354;-70
2022/11/11 05:11:01;;;;;;;12.50;9.00;;;;;;;7.67;79.79;100722.44;5125885;28;20050;-70
2022/11/11 05:21:46;;;;;;;19.80;10.40;;;;;;;7.41;79.66;100695.75;5125787;28;20050;-70
2022/11/11 05:26:57;;;;;;;19.40;11.45;;;;;;;7.57;79.65;100739.38;5125723;28;20360;-70
2022/11/11 05:29:23;;;;;;;21.65;13.43;;;;;;;7.58;79.59;100748.16;5125759;28;20054;-69
2022/11/11 05:31:50;;;;;;;19.77;12.55;;;;;;;7.50;79.57;100743.03;5125613;28;20047;-70
2022/11/11 05:34:17;;;;;;;24.90;13.98;;;;;;;6.98;79.65;100664.09;5125864;28;20248;-70
2022/11/11 05:36:43;;;;;;;20.30;13.50;;;;;;;7.55;79.60;100761.41;5107918;28;20031;-70
2022/11/11 05:39:11;;;;;;;20.67;13.25;;;;;;;7.54;79.55;100755.28;5108676;28;20187;-70
2022/11/11 05:41:38;;;;;;;25.65;15.13;;;;;;;7.37;79.60;100731.00;5125632;28;20191;-69
2022/11/11 05:44:05;;;;;;;22.48;13.95;;;;;;;7.51;79.58;100752.69;5125911;28;20044;-70
2022/11/11 05:46:32;;;;;;;22.58;14.00;;;;;;;7.51;79.68;100752.69;5125536;28;20092;-71
2022/11/11 05:49:16;;;;;;;24.90;15.27;;;;;;;7.19;79.70;100700.56;5125588;28;20082;-71
2022/11/11 05:51:43;;;;;;;18.88;13.02;;;;;;;7.18;79.50;100701.47;5125745;28;20039;-70
2022/11/11 05:54:12;;;;;;;14.30;10.45;;;;;;;7.50;79.63;100761.50;5125745;28;20059;-71
2022/11/11 05:56:39;;;;;;;14.88;11.07;;;;;;;7.51;79.53;100765.88;5125773;28;20043;-70
2022/11/11 05:59:06;;;;;;;18.85;12.02;;;;;;;7.49;79.79;100762.41;5108125;28;20047;-70
2022/11/11 06:01:33;;;;;;;13.80;10.00;;;;;;;6.23;79.61;100562.75;5129665;28;20061;-71
2022/11/11 06:04:00;;;;;;;15.32;10.93;;;;;;;7.47;79.74;100779.16;5129409;28;20040;-70
2022/11/11 06:06:27;;;;;;;14.73;10.85;;;;;;;7.45;79.66;100787.13;5111825;28;20096;-70
2022/11/11 06:08:54;;;;;;;14.75;9.52;;;;;;;6.23;79.58;100580.31;5129362;28;20044;-70
2022/11/11 06:11:22;;;;;;;19.05;10.77;;;;;;;-2.85;78.87;99052.09;5111572;28;20039;-70
2022/11/11 06:13:49;;;;;;;16.75;11.20;;;;;;;7.43;79.85;100795.94;5111628;28;20040;-71
2022/11/11 06:16:16;;;;;;;16.73;12.40;;;;;;;7.41;79.98;100809.19;5129172;28;20040;-70
2022/11/11 06:18:43;;;;;;;14.80;10.43;;;;;;;7.43;79.94;100814.41;5128830;28;20100;-71
2022/11/11 06:21:10;;;;;;;15.45;11.48;;;;;;;6.81;79.85;100713.59;5128934;28;20050;-70
2022/11/11 06:23:37;;;;;;;13.30;9.75;;;;;;;7.46;79.98;100814.34;5128637;28;20299;-70
2022/11/11 06:26:13;;;;;;;15.55;10.95;;;;;;;7.07;79.88;100751.75;5128678;28;20043;-71
2022/11/11 06:28:42;;;;;;;12.85;10.70;;;;;;;7.47;80.02;100821.38;5110783;28;20043;-70
2022/11/11 06:31:11;;;;;;;14.13;10.57;;;;;;;7.46;80.06;100828.41;5128837;28;20113;-70
2022/11/11 06:33:39;;;;;;;14.27;11.07;;;;;;;7.47;80.13;100831.94;5128834;28;20069;-70
2022/11/11 06:36:07;;;;;;;13.73;10.40;;;;;;;7.32;80.14;100798.75;5110537;28;20054;-70
2022/11/11 06:38:34;;;;;;;16.48;11.63;;;;;;;7.50;80.12;100829.22;5128668;28;20096;-70
2022/11/11 06:41:01;;;;;;;20.65;13.65;;;;;;;7.52;79.97;100845.91;5128742;28;20050;-69
2022/11/11 06:43:27;;;;;;;15.63;11.95;;;;;;;7.53;79.99;100848.50;5128305;28;20296;-69
2022/11/11 06:45:56;;;;;;;12.88;10.75;;;;;;;7.53;80.31;100850.28;5128286;28;20047;-70
2022/11/11 06:48:24;;;;;;;12.32;10.82;;;;;;;7.53;80.15;100851.16;5128513;28;20044;-70
2022/11/11 06:50:51;;;;;;;18.55;11.68;;;;;;;7.54;80.25;100852.88;5128590;28;20085;-70
2022/11/11 06:53:20;;;;;;;13.43;11.50;;;;;;;7.54;80.10;100849.38;5110650;28;20088;-70
2022/11/11 06:55:47;;;;;;;18.05;12.15;;;;;;;7.54;80.18;100852.88;5128378;28;20039;-71
2022/11/11 06:58:16;;;;;;;14.10;12.60;;;;;;;7.31;80.16;100820.75;5128462;28;20051;-71
2022/11/11 07:00:44;;;;;;;13.45;10.40;;;;;;;7.58;80.17;100872.16;5128531;28;20081;-70
2022/11/11 07:03:15;;;;;;;14.13;11.30;;;;;;;7.59;80.38;100866.00;5128222;28;20042;-70
2022/11/11 07:05:43;;;;;;;17.00;11.18;;;;;;;7.38;80.16;100827.69;5128021;28;20051;-71
2022/11/11 07:08:11;;;;;;;13.25;11.85;;;;;;;7.62;80.24;100865.94;5127811;28;20172;-71
2022/11/11 07:10:41;;;;;;;19.15;12.13;;;;;;;7.62;80.37;100866.81;5127943;28;20271;-70
2022/11/11 07:13:08;;;;;;;14.40;12.02;;;;;;;7.63;80.53;100867.66;5127838;28;20055;-70
2022/11/11 07:15:35;;;;;;;16.75;12.30;;;;;;;7.67;80.40;100883.41;5127939;28;20065;-70
2022/11/11 07:18:02;;;;;;;13.65;11.25;;;;;;;7.73;80.61;100871.00;5128096;28;20084;-70
2022/11/11 07:20:31;;;;;;;16.35;12.80;;;;;;;7.78;80.41;100869.16;5109583;28;20054;-70
2022/11/11 07:22:58;;;;;;;18.13;12.63;;;;;;;7.82;80.41;100874.34;5127652;28;20040;-70
2022/11/11 07:25:24;;;;;;;13.55;11.40;;;;;;;7.85;80.31;100866.34;5127970;28;20045;-70
2022/11/11 07:27:51;;;;;;;19.80;12.00;;;;;;;7.92;80.22;100862.69;5127891;28;20047;-70
2022/11/11 07:30:19;;;;;;;16.42;12.15;;;;;;;7.96;80.24;100867.00;5127310;28;20039;-70
2022/11/11 07:32:46;;;;;;;20.10;11.98;;;;;;;7.51;80.21;100784.34;5127502;28;20039;-70
2022/11/11 07:35:14;;;;;;;14.40;11.25;;;;;;;8.03;80.13;100857.19;5109450;28;20307;-70
2022/11/11 07:37:42;;;;;;;14.65;10.98;;;;;;;8.07;79.96;100858.00;5109450;28;20051;-70
2022/11/11 07:40:11;;;;;;;13.90;11.27;;;;;;;7.98;79.67;100848.50;5109400;28;20229;-71
2022/11/11 07:42:39;;;;;;;19.30;11.75;;;;;;;8.15;79.92;100864.84;5127696;28;20168;-70
2022/11/11 07:45:07;;;;;;;16.42;10.85;;;;;;;7.87;79.62;100802.97;5127856;28;20221;-69
2022/11/11 07:47:34;;;;;;;17.73;10.90;;;;;;;8.03;79.46;100818.44;5127058;28;20043;-70
2022/11/11 07:50:01;;;;;;;14.98;9.93;;;;;;;7.70;79.52;100748.78;5126663;28;20342;-71
2022/11/11 07:52:28;;;;;;;20.33;11.95;;;;;;;8.38;79.31;100856.41;5126888;28;20044;-71
2022/11/11 07:54:56;;;;;;;12.98;11.43;;;;;;;8.35;79.40;100830.06;5108933;28;20043;-71
2022/11/11 07:57:23;;;;;;;12.68;10.30;;;;;;;8.53;79.21;100852.56;5126662;28;20299;-70
2022/11/11 07:59:50;;;;;;;17.00;11.45;;;;;;;8.61;79.19;100843.56;5126765;28;20062;-71
2022/11/11 08:02:17;;;;;;;13.55;10.43;;;;;;;7.80;79.10;100701.94;5108882;28;20207;-70
2022/11/11 08:04:44;;;;;;;12.25;9.50;;;;;;;8.86;79.43;100848.25;5126977;28;20039;-70
2022/11/11 08:07:11;;;;;;;10.55;8.85;;;;;;;8.93;79.22;100844.53;5108863;28;20051;-70
2022/11/11 08:09:38;;;;;;;11.63;9.45;;;;;;;8.98;79.01;100838.25;5126654;28;20058;-70
2022/11/11 08:14:51;;;;;;;10.75;8.75;;;;;;;9.11;78.94;100849.38;5126700;28;20043;-70
2022/11/11 08:17:17;;;;;;;12.30;9.93;;;;;;;9.18;78.88;100850.09;5108550;28;20063;-70
2022/11/11 08:19:44;;;;;;;11.20;9.27;;;;;;;9.20;78.57;100851.81;5126687;28;20039;-70
2022/11/11 08:22:11;;;;;;;14.57;10.40;;;;;;;9.24;78.66;100845.53;5125612;28;20076;-70
2022/11/11 08:24:37;;;;;;;11.70;9.32;;;;;;;9.28;78.62;100847.19;5126875;28;20329;-69
2022/11/11 08:27:06;;;;;;;13.88;9.07;;;;;;;9.31;78.24;100844.47;5108362;28;20040;-69
2022/11/11 08:29:32;;;;;;;12.10;8.63;;;;;;;9.35;78.37;100845.25;5126604;28;20035;-70
2022/11/11 08:31:59;;;;;;;10.10;8.48;;;;;;;9.29;78.06;100830.41;5126319;28;20039;-70
2022/11/11 08:34:26;;;;;;;11.05;8.98;;;;;;;9.26;78.23;100813.75;5091685;28;20118;-69
2022/11/11 08:36:53;;;;;;;10.98;7.72;;;;;;;4.35;77.37;100198.91;5126476;28;20055;-69
2022/11/11 08:39:19;;;;;;;10.85;7.63;;;;;;;9.40;77.66;100832.81;5126360;28;20039;-70
2022/11/11 08:41:46;;;;;;;9.85;7.88;;;;;;;9.60;77.55;100866.66;5126398;28;20040;-69
2022/11/11 08:44:14;;;;;;;9.80;7.25;;;;;;;9.65;77.45;100867.41;5126366;28;20062;-70
2022/11/11 08:46:41;;;;;;;9.88;7.65;;;;;;;9.71;77.46;100864.59;5126656;28;20047;-69
2022/11/11 08:49:10;;;;;;;11.35;8.68;;;;;;;9.47;77.05;100807.03;5104638;28;20303;-70
2022/11/11 08:51:36;;;;;;;10.10;7.45;;;;;;;9.85;77.05;100865.06;5104974;28;20044;-71
2022/11/11 08:54:05;;;;;;;8.38;6.40;;;;;;;9.93;76.92;100865.72;5104986;28;20055;-70
2022/11/11 08:56:32;;;;;;;8.82;7.20;;;;;;;10.02;76.46;100861.94;5105468;28;20062;-70
2022/11/11 08:58:58;;;;;;;10.23;7.88;;;;;;;10.13;76.46;100854.56;5105927;28;20044;-70
2022/11/11 09:01:27;;;;;;;9.80;6.47;;;;;;;9.90;76.22;100804.91;5105875;28;20102;-70
2022/11/11 09:03:53;;;;;;;8.65;6.22;;;;;;;10.38;76.02;100852.03;5104664;28;20044;-70
2022/11/11 09:06:20;;;;;;;8.77;6.95;;;;;;;10.52;75.64;100848.97;5105706;28;20238;-70
2022/11/11 09:08:47;;;;;;;8.68;6.55;;;;;;;10.30;75.23;100786.94;5105267;28;20046;-69
2022/11/11 09:11:14;;;;;;;8.43;6.35;;;;;;;10.75;75.02;100841.13;5104559;28;20040;-70
2022/11/11 09:13:40;;;;;;;11.40;7.18;;;;;;;10.79;74.45;100818.94;5104855;28;20036;-70
2022/11/11 09:16:08;;;;;;;10.13;8.75;;;;;;;11.09;73.84;100848.88;5104517;28;20218;-69
2022/11/11 09:18:36;;;;;;;15.75;12.63;;;;;;;11.24;73.23;100847.50;5104530;28;20051;-70
2022/11/11 09:21:04;;;;;;;21.05;14.18;;;;;;;10.45;72.56;100828.84;5104665;28;20040;-70
2022/11/11 09:23:30;;;;;;;17.13;14.60;;;;;;;11.34;72.36;100850.69;5105510;28;20066;-70
2022/11/11 09:26:02;;;;;;;16.17;14.45;;;;;;;11.42;72.16;100865.44;5104460;28;20051;-70
2022/11/11 09:28:30;;;;;;;19.60;14.30;;;;;;;11.52;72.06;100871.31;5104475;28;20036;-70
2022/11/11 09:30:59;;;;;;;18.85;13.27;;;;;;;11.61;71.35;100865.66;5105232;28;20107;-70
2022/11/11 09:33:25;;;;;;;16.50;13.18;;;;;;;11.75;71.59;100862.50;5105424;28;20181;-70
2022/11/11 09:35:54;;;;;;;19.38;12.25;;;;;;;11.84;70.71;100857.72;5108255;28;20308;-69
2022/11/11 09:38:20;;;;;;;14.07;11.52;;;;;;;11.92;70.25;100857.44;5109406;28;20103;-70
2022/11/11 09:40:58;;;;;;;20.45;12.45;;;;;;;11.94;68.84;100862.72;5109282;28;20238;-70
2022/11/11 09:43:35;;;;;;;16.63;12.15;;;;;;;12.05;69.05;100856.09;5109086;28;20040;-70
2022/11/11 09:46:16;;;;;;;17.75;12.68;;;;;;;12.17;68.24;100855.69;5108860;28;20089;-70
2022/11/11 09:49:03;;;;;;;20.95;11.02;;;;;;;12.26;67.65;100859.78;5109299;28;20047;-71
2022/11/11 09:51:40;;;;;;;15.05;12.60;;;;;;;12.18;68.28;100829.97;5129639;28;20043;-70
2022/11/11 09:54:16;;;;;;;17.35;12.23;;;;;;;12.14;67.78;100812.38;5129421;28;20040;-70
2022/11/11 09:56:43;;;;;;;16.63;11.90;;;;;;;12.22;68.73;100818.28;5129508;28;20085;-70
2022/11/11 09:59:16;;;;;;;14.70;11.70;;;;;;;12.59;68.08;100862.91;5129581;28;20051;-70
2022/11/11 10:01:47;;;;;;;13.40;11.65;;;;;;;12.63;67.90;100869.84;5128989;28;20292;-70
2022/11/11 10:04:27;;;;;;;12.43;11.10;;;;;;;12.60;65.80;100861.13;5129425;28;20069;-70
2022/11/11 10:07:03;;;;;;;15.60;12.07;;;;;;;12.50;66.26;100861.47;5128962;28;20064;-70
2022/11/11 10:09:37;;;;;;;13.25;11.85;;;;;;;12.46;67.29;100906.88;5129582;28;20051;-70
2022/11/11 10:12:10;;;;;;;14.52;13.02;;;;;;;12.38;67.00;100856.66;5111267;28;20121;-70
2022/11/11 10:14:40;;;;;;;13.80;12.40;;;;;;;12.33;68.08;100871.91;5128997;28;20040;-69
2022/11/11 10:17:18;;;;;;;15.48;12.68;;;;;;;12.25;66.67;100866.00;5111590;28;20047;-70
2022/11/11 10:19:55;;;;;;;16.30;12.60;;;;;;;12.06;66.66;100833.06;5110284;28;20081;-70
2022/11/11 10:22:28;;;;;;;17.77;13.20;;;;;;;12.22;67.07;100866.13;5110749;28;20044;-70
2022/11/11 10:25:07;;;;;;;15.25;12.50;;;;;;;12.19;66.33;100871.56;5110618;28;20043;-70
2022/11/11 10:27:34;;;;;;;18.85;13.50;;;;;;;12.19;68.47;100872.44;5128638;28;20044;-70
2022/11/11 10:30:07;;;;;;;18.30;14.20;;;;;;;12.15;68.02;100869.91;5128800;28;20043;-70
2022/11/11 10:32:36;;;;;;;15.30;12.90;;;;;;;11.71;67.95;100829.88;5128360;28;20043;-70
2022/11/11 10:35:15;;;;;;;20.73;12.77;;;;;;;12.06;67.29;100871.13;5111445;28;20035;-70
2022/11/11 10:37:43;;;;;;;16.83;13.35;;;;;;;11.85;67.95;100842.66;5128213;28;20295;-70
2022/11/11 10:40:18;;;;;;;16.85;14.55;;;;;;;11.95;66.89;100865.31;5128151;28;20047;-70
2022/11/11 10:42:45;;;;;;;15.13;13.18;;;;;;;11.78;68.27;100834.06;5128525;28;20111;-69
2022/11/11 10:45:21;;;;;;;18.63;14.05;;;;;;;12.01;68.02;100856.28;5109561;28;20322;-70
2022/11/11 10:47:56;;;;;;;19.27;13.98;;;;;;;12.11;67.33;100853.22;5128365;28;20043;-71
2022/11/11 10:50:30;;;;;;;19.75;14.90;;;;;;;12.25;67.60;100844.75;5127850;28;20322;-70
2022/11/11 10:53:03;;;;;;;28.20;14.77;;;;;;;12.24;66.62;100815.56;5128199;28;20036;-70
2022/11/11 10:55:35;;;;;;;16.85;14.23;;;;;;;12.53;66.25;100836.56;5128000;28;20043;-70
2022/11/11 10:58:11;;;;;;;18.80;12.63;;;;;;;12.66;65.54;100828.97;5128913;28;20043;-70
2022/11/11 11:00:40;;;;;;;21.02;14.07;;;;;;;12.76;65.95;100832.97;5109963;28;20241;-70
2022/11/11 11:03:13;;;;;;;20.75;13.68;;;;;;;12.84;65.02;100836.19;5128082;28;20039;-69
2022/11/11 11:05:46;;;;;;;19.13;14.25;;;;;;;12.99;64.91;100835.56;5110435;28;20065;-70
2022/11/11 11:08:18;;;;;;;20.20;15.00;;;;;;;13.10;64.17;100833.31;5127615;28;20043;-70
2022/11/11 11:10:52;;;;;;;19.92;14.52;;;;;;;12.84;63.78;100751.91;5127791;28;20047;-70
2022/11/11 11:13:25;;;;;;;20.80;14.45;;;;;;;13.38;63.55;100821.47;5128405;28;20043;-70
2022/11/11 11:15:57;;;;;;;17.40;14.57;;;;;;;13.44;63.11;100822.09;5109255;28;20040;-70
2022/11/11 11:18:25;;;;;;;15.68;13.52;;;;;;;13.52;64.13;100820.91;5109692;28;20040;-70
2022/11/11 11:20:56;;;;;;;18.70;14.80;;;;;;;13.59;62.95;100817.91;5127731;28;20043;-70
2022/11/11 11:23:39;;;;;;;18.02;14.65;;;;;;;13.60;61.19;100808.13;5110429;28;20047;-69
2022/11/11 11:26:07;;;;;;;17.25;14.10;;;;;;;13.48;63.60;100780.22;5127729;28;20059;-70
2022/11/11 11:28:34;;;;;;;13.93;12.45;;;;;;;13.77;63.40;100805.56;5127500;28;20287;-70
2022/11/11 11:31:03;;;;;;;15.77;13.93;;;;;;;13.82;63.09;100800.88;5126880;28;20039;-70
2022/11/11 11:33:51;;;;;;;16.35;13.65;;;;;;;13.87;61.38;100785.53;5126981;28;20054;-70
2022/11/11 11:36:19;;;;;;;16.33;12.75;;;;;;;13.54;63.48;100721.34;5108767;28;20067;-70
2022/11/11 11:38:49;;;;;;;18.10;12.73;;;;;;;13.92;63.03;100772.88;5127105;28;20085;-70
2022/11/11 11:41:17;;;;;;;13.18;11.48;;;;;;;13.82;62.93;100744.06;5108772;28;20070;-70
2022/11/11 11:43:45;;;;;;;18.00;12.10;;;;;;;14.02;62.88;100773.31;5108858;28;20043;-70
2022/11/11 11:46:19;;;;;;;16.35;11.43;;;;;;;14.06;62.14;100766.91;5127138;28;20100;-70
2022/11/11 11:49:03;;;;;;;17.35;11.07;;;;;;;14.15;61.32;100765.59;5126848;28;20039;-71
2022/11/11 11:51:36;;;;;;;11.73;10.23;;;;;;;14.21;62.09;100758.16;5109129;28;20039;-70
2022/11/11 11:54:25;;;;;;;10.75;9.25;;;;;;;14.11;60.19;100735.56;5126591;28;20169;-69
2022/11/11 11:56:57;;;;;;;16.73;10.88;;;;;;;14.26;61.64;100745.47;5108434;28;20088;-71
2022/11/11 11:59:32;;;;;;;11.90;10.32;;;;;;;14.44;61.27;100765.06;5126317;28;20062;-70
2022/11/11 12:02:05;;;;;;;15.88;10.57;;;;;;;14.48;61.44;100768.44;5108608;28;20043;-70
2022/11/11 12:04:51;;;;;;;12.82;11.20;;;;;;;14.48;59.39;100765.78;5126446;28;20088;-70
2022/11/11 12:07:36;;;;;;;14.90;9.90;;;;;;;14.51;59.59;100760.28;5126528;28;20234;-70
2022/11/11 12:10:16;;;;;;;16.85;12.57;;;;;;;14.51;60.06;100762.94;5126381;28;20242;-70
2022/11/11 12:12:50;;;;;;;14.82;11.93;;;;;;;14.50;60.69;100772.75;5108420;28;20241;-70
2022/11/11 12:15:28;;;;;;;12.82;11.52;;;;;;;14.45;59.84;100777.44;5126192;28;20048;-70
2022/11/11 12:18:11;;;;;;;18.75;11.85;;;;;;;14.48;59.93;100779.09;5108186;28;20044;-69
2022/11/11 12:20:46;;;;;;;14.20;11.27;;;;;;;14.48;61.20;100771.09;5126059;28;20040;-70
2022/11/11 12:23:43;;;;;;;15.88;11.98;;;;;;;14.48;58.98;100768.44;5108518;28;20042;-70
2022/11/11 12:26:19;;;;;;;13.68;11.45;;;;;;;14.42;60.37;100764.25;5108573;28;20221;-71
2022/11/11 12:28:58;;;;;;;15.45;13.18;;;;;;;14.40;60.15;100756.34;5108041;28;20243;-70
2022/11/11 12:31:34;;;;;;;16.45;11.57;;;;;;;14.43;60.17;100768.66;5125551;28;20040;-71
2022/11/11 12:34:24;;;;;;;15.95;12.85;;;;;;;14.12;59.64;100718.63;5108463;28;20310;-70
2022/11/11 12:36:58;;;;;;;22.95;14.60;;;;;;;14.45;60.20;100775.66;5107638;28;20043;-70
2022/11/11 12:39:34;;;;;;;;;;;;;;;14.40;58.36;100768.81;5108929;28;20067;-70
2022/11/11 12:42:13;;;;;;;16.48;13.52;;;;;;;14.18;60.47;100731.66;5108078;28;19923;-70
2022/11/11 12:44:50;;;;;;;18.33;14.65;;;;;;;14.49;60.19;100773.69;5125754;28;20039;-69
2022/11/11 12:47:27;;;;;;;16.35;13.57;;;;;;;14.43;59.78;100742.00;5125930;28;20101;-70